Time;durP1;ratioP1;P1;durP2;ratioP2;P2;SDS_P1;SDS_P2;PMS_P1;PMS_P2;Temp;Humidity;BMP_temperature;BMP_pressure;BME280_temperature;BME280_humidity;BME280_pressure;Samples;Min_cycle;Max_cycle;Signal;HPM_P1;HPM_P2
2022/03/28 00:01:09;;;;;;;8.33;6.10;;;;;;;;;;5053805;28;20581;-77
2022/03/28 00:03:35;;;;;;;7.43;6.00;;;;;;;;;;5053566;28;20203;-76
2022/03/28 00:06:01;;;;;;;8.57;6.53;;;;;;;;;;5053588;28;20178;-77
2022/03/28 00:08:28;;;;;;;8.50;6.67;;;;;;;;;;5053933;28;20651;-77
2022/03/28 00:10:54;;;;;;;8.33;6.70;;;;;;;;;;5053754;28;20176;-77
2022/03/28 00:13:20;;;;;;;8.97;6.87;;;;;;;;;;5071341;28;20721;-77
2022/03/28 00:15:46;;;;;;;9.50;6.83;;;;;;;;;;5053605;28;20549;-77
2022/03/28 00:18:12;;;;;;;9.43;7.20;;;;;;;;;;5054598;28;20184;-77
2022/03/28 00:20:39;;;;;;;8.67;6.50;;;;;;;;;;5057412;28;20180;-77
2022/03/28 00:23:05;;;;;;;7.37;6.00;;;;;;;;;;5057074;28;20212;-77
2022/03/28 00:25:31;;;;;;;6.40;5.53;;;;;;;;;;5057136;28;20171;-77
2022/03/28 00:27:58;;;;;;;8.90;6.30;;;;;;;;;;5057044;28;20273;-77
2022/03/28 00:30:24;;;;;;;7.43;5.67;;;;;;;;;;5057030;28;20261;-77
2022/03/28 00:32:50;;;;;;;7.87;6.30;;;;;;;;;;5056904;28;20288;-77
2022/03/28 00:35:17;;;;;;;8.67;6.27;;;;;;;;;;5075017;28;20179;-77
2022/03/28 00:37:43;;;;;;;8.83;6.43;;;;;;;;;;5074820;28;20181;-77
2022/03/28 00:40:10;;;;;;;8.57;6.23;;;;;;;;;;5057037;28;20267;-77
2022/03/28 00:42:37;;;;;;;8.03;6.33;;;;;;;;;;5056444;28;20213;-77
2022/03/28 00:45:03;;;;;;;8.27;6.63;;;;;;;;;;5056582;28;20174;-77
2022/03/28 00:47:30;;;;;;;7.90;6.43;;;;;;;;;;5057021;28;20179;-77
2022/03/28 00:49:56;;;;;;;9.23;6.83;;;;;;;;;;5056864;28;20181;-77
2022/03/28 00:52:23;;;;;;;8.77;6.73;;;;;;;;;;5056582;28;20206;-77
2022/03/28 00:54:49;;;;;;;10.07;7.40;;;;;;;;;;5056690;28;20210;-77
2022/03/28 00:57:15;;;;;;;10.07;7.17;;;;;;;;;;5056557;28;20178;-77
2022/03/28 00:59:41;;;;;;;9.20;6.70;;;;;;;;;;5056566;28;20186;-77
2022/03/28 01:02:07;;;;;;;11.00;6.90;;;;;;;;;;5056439;28;20291;-77
2022/03/28 01:04:33;;;;;;;8.73;6.73;;;;;;;;;;5056549;28;20248;-77
2022/03/28 01:06:59;;;;;;;8.33;6.47;;;;;;;;;;5056480;28;20223;-77
2022/03/28 01:09:25;;;;;;;8.17;5.90;;;;;;;;;;5056734;28;20304;-77
2022/03/28 01:11:52;;;;;;;8.63;6.83;;;;;;;;;;5056026;28;20254;-77
2022/03/28 01:14:18;;;;;;;9.47;6.77;;;;;;;;;;5056097;28;20173;-77
2022/03/28 01:19:29;;;;;;;8.80;6.90;;;;;;;;;;5074140;28;20187;-77
2022/03/28 01:21:55;;;;;;;9.37;7.13;;;;;;;;;;5055783;28;20213;-77
2022/03/28 01:24:21;;;;;;;8.53;6.50;;;;;;;;;;5055888;28;20177;-77
2022/03/28 01:26:49;;;;;;;8.40;6.60;;;;;;;;;;5056049;28;20173;-77
2022/03/28 01:29:15;;;;;;;7.50;6.23;;;;;;;;;;5055630;28;20200;-77
2022/03/28 01:31:41;;;;;;;9.17;6.53;;;;;;;;;;5055150;28;20185;-77
2022/03/28 01:34:07;;;;;;;8.83;6.93;;;;;;;;;;5055738;28;20176;-77
2022/03/28 01:36:33;;;;;;;7.90;6.70;;;;;;;;;;5055799;28;20208;-77
2022/03/28 01:38:59;;;;;;;8.83;6.60;;;;;;;;;;5055674;28;20544;-77
2022/03/28 01:41:25;;;;;;;8.80;6.90;;;;;;;;;;5055587;28;20204;-77
2022/03/28 01:43:51;;;;;;;8.43;6.60;;;;;;;;;;5055808;28;20178;-77
2022/03/28 01:46:17;;;;;;;7.47;6.07;;;;;;;;;;5055757;28;20195;-77
2022/03/28 01:48:43;;;;;;;7.20;6.13;;;;;;;;;;5055619;28;20177;-77
2022/03/28 01:51:09;;;;;;;9.07;6.60;;;;;;;;;;5055506;28;20184;-77
2022/03/28 01:53:35;;;;;;;7.67;6.37;;;;;;;;;;5055291;28;20204;-77
2022/03/28 01:56:01;;;;;;;8.07;6.33;;;;;;;;;;5055699;28;20590;-77
2022/03/28 01:58:27;;;;;;;9.17;6.70;;;;;;;;;;5055467;28;20181;-77
2022/03/28 02:00:53;;;;;;;9.37;6.93;;;;;;;;;;5055428;28;20658;-77
2022/03/28 02:03:19;;;;;;;9.47;7.37;;;;;;;;;;5055190;28;20222;-77
2022/03/28 02:05:45;;;;;;;11.20;7.77;;;;;;;;;;5055258;28;20187;-77
2022/03/28 02:08:12;;;;;;;9.73;7.50;;;;;;;;;;5055243;28;20659;-77
2022/03/28 02:10:38;;;;;;;9.33;7.17;;;;;;;;;;5055517;28;20250;-77
2022/03/28 02:13:04;;;;;;;9.23;7.63;;;;;;;;;;5055077;28;20206;-77
2022/03/28 02:15:30;;;;;;;9.80;7.60;;;;;;;;;;5054942;28;20182;-77
2022/03/28 02:17:56;;;;;;;9.60;7.53;;;;;;;;;;5055438;28;20187;-77
2022/03/28 02:20:22;;;;;;;9.33;7.37;;;;;;;;;;5055074;28;20574;-77
2022/03/28 02:22:48;;;;;;;9.63;6.90;;;;;;;;;;5054554;28;20217;-77
2022/03/28 02:25:15;;;;;;;8.10;6.57;;;;;;;;;;5055030;28;20184;-77
2022/03/28 02:27:41;;;;;;;10.13;7.40;;;;;;;;;;5055376;28;20185;-77
2022/03/28 02:30:09;;;;;;;9.73;6.80;;;;;;;;;;5054574;28;20242;-77
2022/03/28 02:32:35;;;;;;;8.57;6.60;;;;;;;;;;5106975;22;20218;-74
2022/03/28 02:35:01;;;;;;;8.30;6.47;;;;;;;;;;5095931;28;20171;-77
2022/03/28 02:37:28;;;;;;;9.07;7.10;;;;;;;;;;5095727;28;20266;-77
2022/03/28 02:39:54;;;;;;;9.03;7.00;;;;;;;;;;5079235;28;20225;-77
2022/03/28 02:42:23;;;;;;;9.83;6.80;;;;;;;;;;5074806;28;20214;-77
2022/03/28 02:44:50;;;;;;;8.93;7.10;;;;;;;;;;5092179;28;20162;-77
2022/03/28 02:47:18;;;;;;;9.10;6.57;;;;;;;;;;5092369;28;20171;-77
2022/03/28 02:49:44;;;;;;;8.33;6.07;;;;;;;;;;5075596;28;20180;-76
2022/03/28 02:52:10;;;;;;;7.93;6.17;;;;;;;;;;5091662;28;20191;-76
2022/03/28 02:54:36;;;;;;;8.20;6.20;;;;;;;;;;5092083;28;20178;-76
2022/03/28 02:57:02;;;;;;;9.73;6.57;;;;;;;;;;5075095;28;20174;-76
2022/03/28 02:59:28;;;;;;;8.33;6.80;;;;;;;;;;5075219;28;20178;-76
2022/03/28 03:01:55;;;;;;;8.30;6.57;;;;;;;;;;5091355;28;20207;-76
2022/03/28 03:04:21;;;;;;;8.90;6.97;;;;;;;;;;5091506;28;20165;-77
2022/03/28 03:06:47;;;;;;;8.03;6.50;;;;;;;;;;5074903;28;20566;-76
2022/03/28 03:09:13;;;;;;;8.77;6.63;;;;;;;;;;5075068;28;20678;-76
2022/03/28 03:11:40;;;;;;;10.47;7.43;;;;;;;;;;5074794;28;20193;-76
2022/03/28 03:14:06;;;;;;;9.37;6.87;;;;;;;;;;5074998;28;20194;-76
2022/03/28 03:16:32;;;;;;;8.60;6.30;;;;;;;;;;5074633;28;20188;-76
2022/03/28 03:18:59;;;;;;;9.70;6.87;;;;;;;;;;5091500;28;20178;-76
2022/03/28 03:21:25;;;;;;;9.67;6.63;;;;;;;;;;5091114;28;20690;-76
2022/03/28 03:23:51;;;;;;;9.60;6.70;;;;;;;;;;5091213;28;20563;-76
2022/03/28 03:26:17;;;;;;;9.67;6.33;;;;;;;;;;5074365;28;20179;-76
2022/03/28 03:28:43;;;;;;;12.57;7.30;;;;;;;;;;5091331;28;20178;-76
2022/03/28 03:31:09;;;;;;;9.27;7.13;;;;;;;;;;5091116;28;20281;-76
2022/03/28 03:33:36;;;;;;;9.80;7.67;;;;;;;;;;5074380;28;20237;-76
2022/03/28 03:36:02;;;;;;;9.33;7.43;;;;;;;;;;5091164;28;20627;-76
2022/03/28 03:38:28;;;;;;;10.97;7.60;;;;;;;;;;5074317;28;20179;-76
2022/03/28 03:40:54;;;;;;;11.63;7.03;;;;;;;;;;5090857;28;20184;-76
2022/03/28 03:43:21;;;;;;;8.87;6.60;;;;;;;;;;5090851;28;20211;-76
2022/03/28 03:45:48;;;;;;;9.70;7.27;;;;;;;;;;5074362;28;20189;-76
2022/03/28 03:48:14;;;;;;;11.37;8.33;;;;;;;;;;5090909;28;20204;-76
2022/03/28 03:50:41;;;;;;;10.50;7.97;;;;;;;;;;5074068;28;20635;-76
2022/03/28 03:53:07;;;;;;;9.33;7.47;;;;;;;;;;5074662;28;20205;-76
2022/03/28 03:55:33;;;;;;;10.90;8.10;;;;;;;;;;5095379;28;20223;-77
2022/03/28 03:58:00;;;;;;;11.87;8.43;;;;;;;;;;5094603;28;20200;-76
2022/03/28 04:00:26;;;;;;;11.60;8.17;;;;;;;;;;5077933;28;20646;-76
2022/03/28 04:02:52;;;;;;;10.37;7.63;;;;;;;;;;5094081;28;20211;-76
2022/03/28 04:05:18;;;;;;;9.07;7.10;;;;;;;;;;5077902;28;20184;-76
2022/03/28 04:07:44;;;;;;;9.17;7.27;;;;;;;;;;5094247;28;20180;-76
2022/03/28 04:10:10;;;;;;;10.50;7.60;;;;;;;;;;5094399;28;20576;-76
2022/03/28 04:12:37;;;;;;;10.43;7.67;;;;;;;;;;5093877;28;20399;-76
2022/03/28 04:15:03;;;;;;;11.20;8.33;;;;;;;;;;5094103;28;20182;-76
2022/03/28 04:17:30;;;;;;;11.53;8.10;;;;;;;;;;5077428;28;20212;-76
2022/03/28 04:19:57;;;;;;;11.50;7.93;;;;;;;;;;5094428;28;20188;-76
2022/03/28 04:22:23;;;;;;;10.23;8.07;;;;;;;;;;5077221;28;20209;-76
2022/03/28 04:24:49;;;;;;;10.57;7.50;;;;;;;;;;5094150;28;20198;-76
2022/03/28 04:27:15;;;;;;;10.83;7.73;;;;;;;;;;5077280;28;20265;-76
2022/03/28 04:29:41;;;;;;;9.17;7.20;;;;;;;;;;5077169;28;20195;-76
2022/03/28 04:32:08;;;;;;;10.73;7.60;;;;;;;;;;5076603;28;20204;-76
2022/03/28 04:34:34;;;;;;;10.23;7.40;;;;;;;;;;5093827;28;20526;-76
2022/03/28 04:37:00;;;;;;;8.60;6.33;;;;;;;;;;5077355;28;20214;-76
2022/03/28 04:39:26;;;;;;;8.90;7.00;;;;;;;;;;5077101;28;20307;-76
2022/03/28 04:41:52;;;;;;;10.70;7.30;;;;;;;;;;5093708;28;20206;-76
2022/03/28 04:44:18;;;;;;;10.30;7.30;;;;;;;;;;5076739;28;20315;-76
2022/03/28 04:46:44;;;;;;;9.60;7.13;;;;;;;;;;5076918;28;20177;-76
2022/03/28 04:49:14;;;;;;;9.83;6.97;;;;;;;;;;5076770;28;20184;-76
2022/03/28 04:51:40;;;;;;;12.10;7.67;;;;;;;;;;5077220;28;20232;-76
2022/03/28 04:54:06;;;;;;;11.03;7.30;;;;;;;;;;5094528;28;20269;-76
2022/03/28 04:56:34;;;;;;;9.13;7.27;;;;;;;;;;5093468;28;20203;-76
2022/03/28 04:59:00;;;;;;;8.97;6.87;;;;;;;;;;5076908;28;20177;-76
2022/03/28 05:01:26;;;;;;;9.70;7.17;;;;;;;;;;5076447;28;20206;-76
2022/03/28 05:03:52;;;;;;;10.53;7.47;;;;;;;;;;5076444;28;20287;-76
2022/03/28 05:06:18;;;;;;;10.03;7.40;;;;;;;;;;5076371;28;20656;-76
2022/03/28 05:08:44;;;;;;;8.73;7.33;;;;;;;;;;5076285;28;20174;-76
2022/03/28 05:11:10;;;;;;;9.77;7.37;;;;;;;;;;5093287;28;20185;-76
2022/03/28 05:13:36;;;;;;;9.57;7.23;;;;;;;;;;5075970;28;20209;-76
2022/03/28 05:16:02;;;;;;;9.40;7.27;;;;;;;;;;5076569;28;20182;-76
2022/03/28 05:18:28;;;;;;;9.63;6.97;;;;;;;;;;5076330;28;20176;-76
2022/03/28 05:20:54;;;;;;;9.60;7.30;;;;;;;;;;5076078;28;20201;-76
2022/03/28 05:23:20;;;;;;;9.80;7.20;;;;;;;;;;5075792;28;20215;-76
2022/03/28 05:25:47;;;;;;;10.30;7.83;;;;;;;;;;5076345;28;20640;-76
2022/03/28 05:28:13;;;;;;;9.40;7.10;;;;;;;;;;5092649;28;20170;-76
2022/03/28 05:30:39;;;;;;;8.80;7.30;;;;;;;;;;5093149;28;20176;-76
2022/03/28 05:33:05;;;;;;;10.37;7.63;;;;;;;;;;5092434;28;20214;-75
2022/03/28 05:35:31;;;;;;;11.33;6.80;;;;;;;;;;5092634;28;20529;-76
2022/03/28 05:37:58;;;;;;;9.20;6.90;;;;;;;;;;5076487;28;20184;-76
2022/03/28 05:40:24;;;;;;;9.63;7.57;;;;;;;;;;5092406;28;20180;-76
2022/03/28 05:42:50;;;;;;;13.60;8.27;;;;;;;;;;5091981;28;20212;-76
2022/03/28 05:45:16;;;;;;;11.83;8.03;;;;;;;;;;5076369;28;20230;-77
2022/03/28 05:47:42;;;;;;;14.93;7.90;;;;;;;;;;5075645;28;20526;-76
2022/03/28 05:50:09;;;;;;;10.27;7.23;;;;;;;;;;5075838;28;20228;-76
2022/03/28 05:52:35;;;;;;;13.63;9.10;;;;;;;;;;5092170;28;20250;-76
2022/03/28 05:55:01;;;;;;;12.40;9.00;;;;;;;;;;5075656;28;20591;-77
2022/03/28 05:57:27;;;;;;;9.73;7.23;;;;;;;;;;5092136;28;20213;-76
2022/03/28 05:59:53;;;;;;;11.27;7.70;;;;;;;;;;5092132;28;20223;-77
2022/03/28 06:02:19;;;;;;;11.17;8.10;;;;;;;;;;5075152;28;20211;-77
2022/03/28 06:04:45;;;;;;;11.90;8.00;;;;;;;;;;5075488;28;20186;-77
2022/03/28 06:07:12;;;;;;;12.40;8.60;;;;;;;;;;5075325;28;20178;-77
2022/03/28 06:09:38;;;;;;;14.87;7.23;;;;;;;;;;5092036;28;20181;-77
2022/03/28 06:12:04;;;;;;;10.90;7.10;;;;;;;;;;5074781;28;20202;-77
2022/03/28 06:14:30;;;;;;;10.10;7.37;;;;;;;;;;5075079;28;20282;-76
2022/03/28 06:16:56;;;;;;;11.03;8.17;;;;;;;;;;5091292;28;20211;-77
2022/03/28 06:19:23;;;;;;;10.90;8.23;;;;;;;;;;5075275;28;20206;-77
2022/03/28 06:21:49;;;;;;;10.17;8.30;;;;;;;;;;5074799;28;20290;-77
2022/03/28 06:24:15;;;;;;;12.73;8.27;;;;;;;;;;5074991;28;20184;-76
2022/03/28 06:26:41;;;;;;;13.57;8.40;;;;;;;;;;5074983;28;20176;-76
2022/03/28 06:29:09;;;;;;;14.63;8.20;;;;;;;;;;5074808;28;20185;-76
2022/03/28 06:31:35;;;;;;;11.43;8.13;;;;;;;;;;5074944;28;20183;-76
2022/03/28 06:34:03;;;;;;;9.77;7.60;;;;;;;;;;5092735;28;20291;-77
2022/03/28 06:36:30;;;;;;;11.50;8.20;;;;;;;;;;5075464;28;20187;-80
2022/03/28 06:38:57;;;;;;;8.47;6.90;;;;;;;;;;5092722;28;20252;-76
2022/03/28 06:41:23;;;;;;;8.20;6.97;;;;;;;;;;5074552;28;20210;-76
2022/03/28 06:43:49;;;;;;;7.40;6.50;;;;;;;;;;5090326;28;20729;-76
2022/03/28 06:46:15;;;;;;;8.00;6.87;;;;;;;;;;5082997;28;20175;-79
2022/03/28 06:48:42;;;;;;;10.10;7.10;;;;;;;;;;5091170;28;20185;-76
2022/03/28 06:51:09;;;;;;;8.80;7.37;;;;;;;;;;5092411;28;20171;-76
2022/03/28 06:53:35;;;;;;;8.57;7.30;;;;;;;;;;5092130;28;20241;-76
2022/03/28 06:56:01;;;;;;;8.07;6.87;;;;;;;;;;5090629;28;20268;-76
2022/03/28 06:58:27;;;;;;;10.43;8.00;;;;;;;;;;5057995;28;20178;-77
2022/03/28 07:00:53;;;;;;;11.73;8.13;;;;;;;;;;5091210;28;20173;-77
2022/03/28 07:03:19;;;;;;;13.40;10.03;;;;;;;;;;5057382;28;20214;-76
2022/03/28 07:05:45;;;;;;;13.93;10.30;;;;;;;;;;5057754;28;20183;-77
2022/03/28 07:08:13;;;;;;;11.47;8.67;;;;;;;;;;5090987;28;20237;-77
2022/03/28 07:10:39;;;;;;;10.83;8.73;;;;;;;;;;5074430;28;20182;-76
2022/03/28 07:13:05;;;;;;;12.13;8.57;;;;;;;;;;5057349;28;20202;-76
2022/03/28 07:15:31;;;;;;;10.97;8.73;;;;;;;;;;5057489;28;20244;-77
2022/03/28 07:18:02;;;;;;;12.27;9.53;;;;;;;;;;5090991;28;20218;-76
2022/03/28 07:20:30;;;;;;;12.53;9.80;;;;;;;;;;5075194;28;20586;-76
2022/03/28 07:22:57;;;;;;;13.97;9.90;;;;;;;;;;5057135;28;20221;-77
2022/03/28 07:25:24;;;;;;;13.33;9.53;;;;;;;;;;5074330;28;20260;-77
2022/03/28 07:27:50;;;;;;;13.27;9.77;;;;;;;;;;5090981;28;20186;-77
2022/03/28 07:30:17;;;;;;;14.27;10.47;;;;;;;;;;5095415;28;20312;-76
2022/03/28 07:32:44;;;;;;;14.17;10.27;;;;;;;;;;5061164;28;20254;-76
2022/03/28 07:35:11;;;;;;;12.27;10.00;;;;;;;;;;5096251;28;20187;-75
2022/03/28 07:37:40;;;;;;;17.33;11.13;;;;;;;;;;5095165;28;20183;-76
2022/03/28 07:40:07;;;;;;;14.43;10.37;;;;;;;;;;5061295;28;20180;-76
2022/03/28 07:42:34;;;;;;;14.77;11.40;;;;;;;;;;5095782;28;20208;-76
2022/03/28 07:45:01;;;;;;;13.90;10.60;;;;;;;;;;5094942;28;20175;-76
2022/03/28 07:47:27;;;;;;;15.13;11.67;;;;;;;;;;5096008;28;20165;-76
2022/03/28 07:49:54;;;;;;;15.67;11.60;;;;;;;;;;5094674;28;20176;-76
2022/03/28 07:52:20;;;;;;;13.63;11.17;;;;;;;;;;5060896;28;20211;-76
2022/03/28 07:54:47;;;;;;;12.97;10.83;;;;;;;;;;5095875;28;20172;-76
2022/03/28 07:57:14;;;;;;;14.33;10.93;;;;;;;;;;5061228;28;20176;-76
2022/03/28 07:59:42;;;;;;;15.83;11.17;;;;;;;;;;5095700;28;20261;-75
2022/03/28 08:02:08;;;;;;;12.87;10.57;;;;;;;;;;5094205;28;20216;-76
2022/03/28 08:04:34;;;;;;;13.03;9.80;;;;;;;;;;5094240;28;20212;-76
2022/03/28 08:07:03;;;;;;;15.00;10.37;;;;;;;;;;5060884;28;20181;-76
2022/03/28 08:09:29;;;;;;;14.27;10.80;;;;;;;;;;5094317;28;20182;-76
2022/03/28 08:11:56;;;;;;;14.80;11.50;;;;;;;;;;5060648;28;20184;-76
2022/03/28 08:14:22;;;;;;;13.70;10.27;;;;;;;;;;5060909;28;20251;-75
2022/03/28 08:16:49;;;;;;;15.53;10.63;;;;;;;;;;5094093;28;20187;-75
2022/03/28 08:19:15;;;;;;;15.17;10.73;;;;;;;;;;5094115;28;20176;-76
2022/03/28 08:21:41;;;;;;;14.03;10.23;;;;;;;;;;5093827;28;20204;-76
2022/03/28 08:24:07;;;;;;;14.47;10.57;;;;;;;;;;5060684;28;20196;-76
2022/03/28 08:26:33;;;;;;;15.30;10.53;;;;;;;;;;5060507;28;20175;-76
2022/03/28 08:28:59;;;;;;;15.20;10.90;;;;;;;;;;5093927;28;20183;-76
2022/03/28 08:31:25;;;;;;;14.87;10.90;;;;;;;;;;5060056;28;20269;-76
2022/03/28 08:33:51;;;;;;;12.70;9.93;;;;;;;;;;5088047;22;20228;-76
2022/03/28 08:36:17;;;;;;;11.97;10.13;;;;;;;;;;5090387;28;20180;-76
2022/03/28 08:38:44;;;;;;;13.83;9.63;;;;;;;;;;5072743;28;20176;-76
2022/03/28 08:41:14;;;;;;;13.60;10.13;;;;;;;;;;5073315;28;20181;-76
2022/03/28 08:43:40;;;;;;;12.83;10.37;;;;;;;;;;5072751;28;20212;-77
2022/03/28 08:46:08;;;;;;;14.93;10.60;;;;;;;;;;5073324;28;20209;-77
2022/03/28 08:48:37;;;;;;;13.60;10.17;;;;;;;;;;5073346;28;20223;-76
2022/03/28 08:51:05;;;;;;;13.33;10.00;;;;;;;;;;5073460;28;20175;-76
2022/03/28 08:53:31;;;;;;;12.33;9.83;;;;;;;;;;5072937;28;20201;-77
2022/03/28 08:55:57;;;;;;;14.07;10.57;;;;;;;;;;5073227;28;20173;-77
2022/03/28 08:58:23;;;;;;;12.70;10.03;;;;;;;;;;5074416;28;20194;-77
2022/03/28 09:00:49;;;;;;;13.77;9.83;;;;;;;;;;5073247;28;20197;-77
2022/03/28 09:03:16;;;;;;;11.70;9.47;;;;;;;;;;5072917;28;20635;-77
2022/03/28 09:05:47;;;;;;;12.70;9.57;;;;;;;;;;5072959;28;20187;-77
2022/03/28 09:08:13;;;;;;;13.03;10.07;;;;;;;;;;5074196;28;20541;-77
2022/03/28 09:10:44;;;;;;;14.67;10.07;;;;;;;;;;5072842;28;20177;-77
2022/03/28 09:13:11;;;;;;;14.70;9.50;;;;;;;;;;5074186;28;20649;-77
2022/03/28 09:15:42;;;;;;;9.97;8.40;;;;;;;;;;5073130;28;20184;-77
2022/03/28 09:18:08;;;;;;;10.43;8.03;;;;;;;;;;5072976;28;20208;-77
2022/03/28 09:20:37;;;;;;;8.57;7.47;;;;;;;;;;5074041;28;20173;-77
2022/03/28 09:23:21;;;;;;;11.17;8.73;;;;;;;;;;5072653;28;20219;-77
2022/03/28 09:25:51;;;;;;;9.50;7.70;;;;;;;;;;5072502;28;20170;-77
2022/03/28 09:28:24;;;;;;;10.73;8.00;;;;;;;;;;5072744;28;20181;-77
2022/03/28 09:30:50;;;;;;;11.90;8.23;;;;;;;;;;5073926;28;20165;-77
2022/03/28 09:33:18;;;;;;;9.47;7.60;;;;;;;;;;5072272;28;20224;-77
2022/03/28 09:35:48;;;;;;;10.50;8.33;;;;;;;;;;5072409;28;20180;-77
2022/03/28 09:38:18;;;;;;;12.23;8.47;;;;;;;;;;5072307;28;20177;-77
2022/03/28 09:40:51;;;;;;;9.07;7.33;;;;;;;;;;5072974;28;20181;-77
2022/03/28 09:43:21;;;;;;;9.10;7.53;;;;;;;;;;5073489;28;20201;-77
2022/03/28 09:45:50;;;;;;;10.47;7.80;;;;;;;;;;5072255;28;20188;-78
2022/03/28 09:48:16;;;;;;;10.77;7.83;;;;;;;;;;5072219;28;20184;-78
2022/03/28 09:50:43;;;;;;;8.83;7.43;;;;;;;;;;5071180;28;20201;-78
2022/03/28 09:53:14;;;;;;;10.87;7.60;;;;;;;;;;5071511;28;20205;-78
2022/03/28 09:55:51;;;;;;;9.93;7.53;;;;;;;;;;5072066;28;20183;-77
2022/03/28 09:58:35;;;;;;;9.40;7.83;;;;;;;;;;5073122;28;20195;-78
2022/03/28 10:01:02;;;;;;;11.27;7.77;;;;;;;;;;5073019;28;20180;-77
2022/03/28 10:03:32;;;;;;;11.03;9.00;;;;;;;;;;5072738;28;20212;-77
2022/03/28 10:06:00;;;;;;;10.43;8.37;;;;;;;;;;5073074;28;20169;-77
2022/03/28 10:08:27;;;;;;;8.47;7.27;;;;;;;;;;5071920;28;20189;-77
2022/03/28 10:10:53;;;;;;;8.70;7.53;;;;;;;;;;5071680;28;20650;-77
2022/03/28 10:13:22;;;;;;;10.43;7.73;;;;;;;;;;5071343;28;20242;-77
2022/03/28 10:15:48;;;;;;;7.63;6.70;;;;;;;;;;5071669;28;20188;-78
2022/03/28 10:18:14;;;;;;;9.23;7.30;;;;;;;;;;5073109;28;20666;-77
2022/03/28 10:20:42;;;;;;;10.87;7.87;;;;;;;;;;5071449;28;20232;-77
2022/03/28 10:23:09;;;;;;;8.40;7.10;;;;;;;;;;5070973;28;20209;-78
2022/03/28 10:25:35;;;;;;;11.03;8.53;;;;;;;;;;5071551;28;20180;-78
2022/03/28 10:28:01;;;;;;;12.40;9.47;;;;;;;;;;5071409;28;20597;-77
2022/03/28 10:30:30;;;;;;;8.73;7.23;;;;;;;;;;5072558;28;20227;-78
2022/03/28 10:33:07;;;;;;;14.23;8.20;;;;;;;;;;5070942;28;20637;-78
2022/03/28 10:35:33;;;;;;;8.27;7.10;;;;;;;;;;5071375;28;20215;-78
2022/03/28 10:38:18;;;;;;;10.50;6.50;;;;;;;;;;5071665;28;20187;-78
2022/03/28 10:40:57;;;;;;;8.77;7.23;;;;;;;;;;5071338;28;20180;-78
2022/03/28 10:43:25;;;;;;;9.80;6.83;;;;;;;;;;5071056;28;20205;-78
2022/03/28 10:45:51;;;;;;;8.90;6.43;;;;;;;;;;5071030;28;20661;-77
2022/03/28 10:48:32;;;;;;;7.97;6.30;;;;;;;;;;5072400;28;20173;-78
2022/03/28 10:51:02;;;;;;;7.27;5.60;;;;;;;;;;5072238;28;20210;-78
2022/03/28 10:53:31;;;;;;;9.03;6.60;;;;;;;;;;5071140;28;20531;-78
2022/03/28 10:55:59;;;;;;;7.87;6.67;;;;;;;;;;5087717;28;20176;-78
2022/03/28 10:58:25;;;;;;;7.90;6.30;;;;;;;;;;5087805;28;20188;-78
2022/03/28 11:01:06;;;;;;;8.43;6.10;;;;;;;;;;5072638;28;20169;-78
2022/03/28 11:03:41;;;;;;;8.90;7.63;;;;;;;;;;5070414;28;20265;-77
2022/03/28 11:06:07;;;;;;;8.40;6.80;;;;;;;;;;5070777;28;20706;-78
2022/03/28 11:08:40;;;;;;;7.73;6.53;;;;;;;;;;5070804;28;20177;-78
2022/03/28 11:11:20;;;;;;;8.27;7.20;;;;;;;;;;5070874;28;20183;-77
2022/03/28 11:14:03;;;;;;;8.17;6.87;;;;;;;;;;5070997;28;20196;-77
2022/03/28 11:16:43;;;;;;;8.10;6.57;;;;;;;;;;5071986;28;20169;-77
2022/03/28 11:19:19;;;;;;;7.80;6.93;;;;;;;;;;5070649;28;20179;-78
2022/03/28 11:22:04;;;;;;;8.60;6.90;;;;;;;;;;5070426;28;20269;-78
2022/03/28 11:24:45;;;;;;;7.50;6.70;;;;;;;;;;5070605;28;20713;-77
2022/03/28 11:27:12;;;;;;;9.10;7.13;;;;;;;;;;5070680;28;20176;-77
2022/03/28 11:29:38;;;;;;;9.73;6.23;;;;;;;;;;5071028;28;20173;-77
2022/03/28 11:32:08;;;;;;;9.70;6.00;;;;;;;;;;5070581;28;20544;-77
2022/03/28 11:34:34;;;;;;;7.05;5.10;;;;;;;;;;5070618;28;20184;-77
2022/03/28 11:37:01;;;;;;;6.13;4.73;;;;;;;;;;5070426;28;20184;-77
2022/03/28 11:39:27;;;;;;;6.30;5.50;;;;;;;;;;5070577;28;20176;-77
2022/03/28 11:41:54;;;;;;;7.20;4.83;;;;;;;;;;5070488;28;20209;-77
2022/03/28 11:44:20;;;;;;;6.83;5.20;;;;;;;;;;5070484;28;20291;-77
2022/03/28 11:47:00;;;;;;;6.27;5.47;;;;;;;;;;5087468;28;20203;-77
2022/03/28 11:49:26;;;;;;;5.63;5.03;;;;;;;;;;5070530;28;20188;-77
2022/03/28 11:51:53;;;;;;;7.22;5.35;;;;;;;;;;5070763;28;20250;-77
2022/03/28 11:54:21;;;;;;;6.25;4.53;;;;;;;;;;5070475;28;20201;-77
2022/03/28 11:59:41;;;;;;;4.72;3.97;;;;;;;;;;5071916;28;20227;-77
2022/03/28 12:02:08;;;;;;;5.60;4.47;;;;;;;;;;5070002;28;20208;-79
2022/03/28 12:04:34;;;;;;;5.45;4.63;;;;;;;;;;5070605;28;20195;-77
2022/03/28 12:07:02;;;;;;;7.32;4.95;;;;;;;;;;5070463;28;20173;-77
2022/03/28 12:09:28;;;;;;;7.78;4.13;;;;;;;;;;5087145;28;20569;-77
2022/03/28 12:11:55;;;;;;;6.05;4.75;;;;;;;;;;5086912;28;20178;-77
2022/03/28 12:14:22;;;;;;;6.18;4.45;;;;;;;;;;5087705;28;20199;-77
2022/03/28 12:16:56;;;;;;;6.40;4.60;;;;;;;;;;5073839;28;20268;-77
2022/03/28 12:19:23;;;;;;;6.18;4.80;;;;;;;;;;5075106;28;20165;-77
2022/03/28 12:21:50;;;;;;;6.30;4.60;;;;;;;;;;5073615;28;20215;-77
2022/03/28 12:24:17;;;;;;;5.57;4.78;;;;;;;;;;5074184;28;20224;-77
2022/03/28 12:26:43;;;;;;;5.45;4.25;;;;;;;;;;5073813;28;20172;-77
2022/03/28 12:29:12;;;;;;;5.43;4.38;;;;;;;;;;5073552;28;20174;-77
2022/03/28 12:31:42;;;;;;;6.47;4.45;;;;;;;;;;5073417;28;20534;-77
2022/03/28 12:34:09;;;;;;;5.10;4.32;;;;;;;;;;5073612;28;20212;-77
2022/03/28 12:36:35;;;;;;;6.53;4.60;;;;;;;;;;5073690;28;20207;-77
2022/03/28 12:39:06;;;;;;;5.40;4.78;;;;;;;;;;5074853;28;20168;-77
2022/03/28 12:41:32;;;;;;;5.60;4.65;;;;;;;;;;5073239;28;20267;-77
2022/03/28 12:43:59;;;;;;;6.47;5.00;;;;;;;;;;5073427;28;20235;-77
2022/03/28 12:46:25;;;;;;;7.30;4.40;;;;;;;;;;5073350;28;20173;-77
2022/03/28 12:48:57;;;;;;;7.15;4.70;;;;;;;;;;5073346;28;20673;-77
2022/03/28 12:51:31;;;;;;;5.50;4.20;;;;;;;;;;5073201;28;20169;-77
2022/03/28 12:54:04;;;;;;;5.53;4.55;;;;;;;;;;5073277;28;20189;-77
2022/03/28 12:56:51;;;;;;;4.82;4.30;;;;;;;;;;5073593;28;20280;-77
2022/03/28 12:59:21;;;;;;;7.53;4.70;;;;;;;;;;5070839;28;20184;-77
2022/03/28 13:01:48;;;;;;;5.20;4.38;;;;;;;;;;5073364;28;20606;-77
2022/03/28 13:04:19;;;;;;;5.70;4.60;;;;;;;;;;5073508;28;20279;-77
2022/03/28 13:06:46;;;;;;;5.25;4.13;;;;;;;;;;5073530;28;20165;-77
2022/03/28 13:09:15;;;;;;;6.55;4.25;;;;;;;;;;5073422;28;20169;-77
2022/03/28 13:11:42;;;;;;;6.28;4.30;;;;;;;;;;5073547;28;20173;-77
2022/03/28 13:14:08;;;;;;;4.78;3.90;;;;;;;;;;5073637;28;20193;-77
2022/03/28 13:16:34;;;;;;;4.50;3.92;;;;;;;;;;5073343;28;20651;-77
2022/03/28 13:19:05;;;;;;;4.90;4.40;;;;;;;;;;5074534;28;20171;-77
2022/03/28 13:21:40;;;;;;;5.50;4.60;;;;;;;;;;5072977;28;20550;-77
2022/03/28 13:24:06;;;;;;;5.45;4.50;;;;;;;;;;5073150;28;20290;-77
2022/03/28 13:28:01;;;;;;;8.73;4.88;;;;;;;;;;5074571;28;20165;-77
2022/03/28 13:29:39;;;;;;;4.68;4.22;;;;;;;;;;5087113;28;20180;-77
2022/03/28 13:32:06;;;;;;;5.38;4.38;;;;;;;;;;5072683;28;20218;-77
2022/03/28 13:34:32;;;;;;;6.05;4.53;;;;;;;;;;5072970;28;20633;-77
2022/03/28 13:36:59;;;;;;;6.65;4.72;;;;;;;;;;5072871;28;20173;-77
2022/03/28 13:39:25;;;;;;;5.55;4.45;;;;;;;;;;5072736;28;20184;-77
2022/03/28 13:41:51;;;;;;;5.30;4.30;;;;;;;;;;5072587;28;20205;-77
2022/03/28 13:44:17;;;;;;;4.88;3.97;;;;;;;;;;5089935;28;20195;-77
2022/03/28 13:46:45;;;;;;;7.78;4.57;;;;;;;;;;5073968;28;20204;-77
2022/03/28 13:49:11;;;;;;;5.10;4.55;;;;;;;;;;5073868;28;20161;-77
2022/03/28 13:51:38;;;;;;;5.88;4.45;;;;;;;;;;5072392;28;20177;-77
2022/03/28 13:54:04;;;;;;;5.45;4.50;;;;;;;;;;5072736;28;20219;-77
2022/03/28 13:56:30;;;;;;;6.82;4.47;;;;;;;;;;5072492;28;20260;-77
2022/03/28 13:58:57;;;;;;;5.38;4.65;;;;;;;;;;5072484;28;20239;-77
2022/03/28 14:01:27;;;;;;;6.93;4.95;;;;;;;;;;5089000;28;20188;-77
2022/03/28 14:03:54;;;;;;;5.55;4.50;;;;;;;;;;5073517;28;20221;-77
2022/03/28 14:06:20;;;;;;;5.68;4.65;;;;;;;;;;5072621;28;20204;-77
2022/03/28 14:08:47;;;;;;;6.47;4.65;;;;;;;;;;5072601;28;20209;-77
2022/03/28 14:11:13;;;;;;;6.93;4.25;;;;;;;;;;5072113;28;20223;-77
2022/03/28 14:13:40;;;;;;;7.28;4.70;;;;;;;;;;5071954;28;20717;-77
2022/03/28 14:16:06;;;;;;;5.88;4.22;;;;;;;;;;5089052;28;20205;-77
2022/03/28 14:18:33;;;;;;;5.78;4.47;;;;;;;;;;5072276;28;20166;-77
2022/03/28 14:20:59;;;;;;;6.70;4.70;;;;;;;;;;5072116;28;20562;-78
2022/03/28 14:23:26;;;;;;;5.45;4.55;;;;;;;;;;5071841;28;20205;-78
2022/03/28 14:25:54;;;;;;;6.38;5.18;;;;;;;;;;5072374;28;20224;-78
2022/03/28 14:28:20;;;;;;;5.10;4.38;;;;;;;;;;5073128;28;20550;-78
2022/03/28 14:30:46;;;;;;;6.15;4.88;;;;;;;;;;5071808;28;20173;-78
2022/03/28 14:33:13;;;;;;;6.32;4.57;;;;;;;;;;5118618;22;20216;-74
2022/03/28 14:35:39;;;;;;;5.28;4.38;;;;;;;;;;5092187;28;20305;-75
2022/03/28 14:38:07;;;;;;;7.82;4.68;;;;;;;;;;5074854;28;20168;-76
2022/03/28 14:40:33;;;;;;;5.55;4.55;;;;;;;;;;5075333;28;20630;-75
2022/03/28 14:42:59;;;;;;;5.82;4.22;;;;;;;;;;5078364;28;20227;-75